Szczecin, Poland
Current Conditions -  °F | °C
As of 9:00 PM on Sunday 23 Nov 2014 (Local Time) from EPSC Reporting Station
Haze Haze  
Wind Chill: 33°   Ceiling: Unl
Heat Index: 41°   Visibility: 3mi
Dew Point: 37°   Wind: 16mph
Humidity: 87%   Direction: 130°SE
Pressure: 30.24"   Gusts: NA
Location:  53.43°N, 14.53°E
Report Text: EPSC 231900Z 13014KT 5000 BR NSC 05/03 Q1024
Loading
Personal Weather Stations






























Interactive Weather Map New forecast layout! Learn more

10-Day Weather Forecast

Advertisements
Track Severe Weather on mobile